Alden, MN

4:58 PM CST on November 26, 2014 (GMT -0600)
15797 600th Ave (Baroda) | Change Station
CLOSE
Current Station
Personal Weather Station
Location: Wells, MN
Elevation: 1230 ft
Nearby Weather Stations
Active Advisory: Winter Weather Advisory Active Notice: Public Information Statement

Elev 1230 ft 43.71 °N, 93.67 °W | Updated 12 minutes ago

Overcast
Overcast
22.5 °F
Feels Like 10 °F
N
13.0
Wind Variable Wind from North
Gusts 13.0 mph

Today
High -- | Low -- °F
--% Chance of Precip.
Yesterday
High -- | Low -- °F
Precip. -- in
7:22 AM 4:40 PM
Waxing Crescent, 23% visible
Pressure 30.20 in
Visibility 3.0 miles
Clouds Scattered Clouds 5000 ft
Mostly Cloudy 6000 ft
Windchill 10 °F
Dew Point 21 °F
Humidity 94%
Rainfall 0.00 in
Snow Depth Not available.
UV 0 out of 12
Pollen .10 out of 12
Air Quality Not available.
Flu Activity Not available.
METAR KAEL 262232Z AUTO 36005KT 3SM -SN SCT050 BKN060 M04/M05 A3020 RMK AO2

More Conditions Fewer Conditions

Pressure 30.20 in
Visibility 3.0 miles
Clouds Scattered Clouds 5000 ft
Mostly Cloudy 6000 ft
Windchill 10 °F
Dew Point 21 °F
Humidity 94%
Rainfall 0.00 in
Snow Depth Not available.
UV 0 out of 12
Pollen .10 out of 12
Air Quality Not available.
Flu Activity Not available.
METAR KAEL 262232Z AUTO 36005KT 3SM -SN SCT050 BKN060 M04/M05 A3020 RMK AO2

More Conditions Fewer Conditions

10-Day Weather Forecast

Almanac

Astronomy

Nov. 26, 2014 Rise Set
Actual Time
Civil Twilight
Nautical Twilight
Astronomical Twilight
Moon
Length of Visible Light
Length of Day
Tomorrow will be .
, % of the Moon is Illuminated

Today's Extremes

State Highs State Lows

Community

WunderPhotos

Upload Photos

1,773,908 photos uploaded!

WunderBlogs® & News

Nearby

Air Quality

  Air Quality AQ Index Pollutant
Not available.

Snow Depth

Station Depth Elevation

Earthquake Activity

City Distance Mag. Time & Date
Minimum magnitude displayed is 2.5.

Coastal Water Temperatures

Place Temperature

Nearby Weather Stations